Time;durP1;ratioP1;P1;durP2;ratioP2;P2;SDS_P1;SDS_P2;PMS_P1;PMS_P2;Temp;Humidity;BMP_temperature;BMP_pressure;BME280_temperature;BME280_humidity;BME280_pressure;Samples;Min_cycle;Max_cycle;Signal;HPM_P1;HPM_P2
2022/09/29 00:04:12;;;;;;;2.13;1.50;;;;;;;11.39;100.00;94539.91;10418823;27;97279;-84
2022/09/29 00:09:15;;;;;;;2.13;1.70;;;;;;;11.40;100.00;94528.41;10422703;28;96812;-84
2022/09/29 00:14:18;;;;;;;2.58;2.08;;;;;;;11.46;100.00;94528.44;10399756;27;96939;-84
2022/09/29 00:19:22;;;;;;;3.38;1.77;;;;;;;11.51;100.00;94527.88;10393338;27;96771;-84
2022/09/29 00:24:28;;;;;;;2.35;1.65;;;;;;;11.54;100.00;94517.03;10401489;27;97820;-85
2022/09/29 00:29:31;;;;;;;2.13;1.45;;;;;;;11.56;100.00;94522.88;10403676;27;96933;-84
2022/09/29 00:34:36;;;;;;;1.60;1.40;;;;;;;11.58;100.00;94523.47;10409170;28;98413;-84
2022/09/29 00:39:38;;;;;;;2.27;1.50;;;;;;;11.59;100.00;94525.09;10401042;27;97332;-83
2022/09/29 00:45:01;;;;;;;2.42;1.40;;;;;;;11.57;100.00;94516.63;10404149;27;97107;-84
2022/09/29 00:50:12;;;;;;;2.35;1.10;;;;;;;11.51;100.00;94517.41;10414087;27;98388;-85
2022/09/29 00:55:20;;;;;;;2.05;1.17;;;;;;;11.50;100.00;94510.56;10415999;27;100117;-84
2022/09/29 01:00:23;;;;;;;1.40;0.90;;;;;;;11.45;100.00;94515.56;10413658;27;97845;-84
2022/09/29 01:05:31;;;;;;;2.22;1.10;;;;;;;11.43;100.00;94510.53;10417604;27;97070;-84
2022/09/29 01:10:35;;;;;;;1.23;0.82;;;;;;;11.39;100.00;94509.31;10418316;27;98086;-84
2022/09/29 01:15:38;;;;;;;1.92;0.73;;;;;;;11.36;100.00;94497.47;10417640;27;97206;-83
2022/09/29 01:20:51;;;;;;;2.97;0.75;;;;;;;11.36;100.00;94473.94;10417842;27;98232;-84
2022/09/29 01:26:27;;;;;;;1.30;0.75;;;;;;;11.44;100.00;94479.97;10417640;27;96993;-84
2022/09/29 01:31:41;;;;;;;1.13;0.73;;;;;;;11.45;100.00;94481.56;10419947;27;96874;-83
2022/09/29 01:36:54;;;;;;;1.52;0.73;;;;;;;11.45;100.00;94473.72;10417056;27;96914;-84
2022/09/29 01:42:03;;;;;;;1.88;0.70;;;;;;;11.45;100.00;94476.34;10417034;27;97418;-85
2022/09/29 01:47:10;;;;;;;2.10;0.82;;;;;;;11.45;100.00;94478.97;10412952;27;96818;-85
2022/09/29 01:52:17;;;;;;;1.55;0.77;;;;;;;11.45;100.00;94481.56;10415682;27;97189;-85
2022/09/29 01:57:28;;;;;;;1.55;0.80;;;;;;;11.42;100.00;94482.00;10416988;27;97158;-85
2022/09/29 02:02:37;;;;;;;0.50;0.50;;;;;;;11.36;100.00;94487.00;10417231;27;97268;-85
2022/09/29 02:07:44;;;;;;;0.82;0.60;;;;;;;11.31;100.00;94480.69;10417411;27;97241;-86
2022/09/29 02:12:50;;;;;;;2.17;0.60;;;;;;;11.26;100.00;94476.06;10435100;27;97736;-86
2022/09/29 02:17:59;;;;;;;0.38;0.38;;;;;;;11.23;100.00;94475.66;10466740;27;97174;-85
2022/09/29 02:23:02;;;;;;;1.90;0.70;;;;;;;11.23;100.00;94473.84;10467596;27;96805;-86
2022/09/29 02:28:06;;;;;;;1.38;0.60;;;;;;;11.25;100.00;94479.66;10456597;27;96819;-85
2022/09/29 02:33:21;;;;;;;0.50;0.50;;;;;;;11.20;100.00;94474.22;10423523;27;97028;-85
2022/09/29 02:38:31;;;;;;;1.60;0.63;;;;;;;11.17;100.00;94482.44;10423656;28;96800;-86
2022/09/29 02:44:03;;;;;;;1.65;0.70;;;;;;;11.10;100.00;94476.38;10440741;27;98143;-85
2022/09/29 02:49:25;;;;;;;1.00;0.73;;;;;;;11.12;100.00;94477.00;10411721;28;96840;-85
2022/09/29 02:54:41;;;;;;;1.85;0.60;;;;;;;11.12;100.00;94466.53;10397296;28;97524;-85
2022/09/29 02:59:52;;;;;;;1.98;0.73;;;;;;;11.09;100.00;94467.75;10395229;27;100884;-85
2022/09/29 03:04:57;;;;;;;1.35;0.52;;;;;;;11.07;100.00;94461.09;10404942;28;100452;-84
2022/09/29 03:10:00;;;;;;;1.52;0.55;;;;;;;11.03;100.00;94462.50;10398841;28;99719;-85
2022/09/29 03:15:04;;;;;;;1.38;0.50;;;;;;;11.04;100.00;94458.88;10400575;27;97100;-85
2022/09/29 03:20:09;;;;;;;0.57;0.47;;;;;;;11.06;100.00;94459.50;10397688;28;98446;-85
2022/09/29 03:25:13;;;;;;;0.68;0.47;;;;;;;11.10;100.00;94458.91;10416097;27;96900;-85
2022/09/29 03:30:16;;;;;;;1.20;0.55;;;;;;;11.11;100.00;94460.50;10432297;27;97050;-85
2022/09/29 03:35:20;;;;;;;2.42;0.80;;;;;;;11.11;100.00;94459.72;10399293;28;96800;-85
2022/09/29 03:40:23;;;;;;;1.60;0.60;;;;;;;11.09;100.00;94449.47;10396224;28;100033;-85
2022/09/29 03:45:26;;;;;;;1.30;0.22;;;;;;;11.11;100.00;94450.06;10428340;27;97048;-86
2022/09/29 03:50:30;;;;;;;0.20;0.20;;;;;;;11.12;100.00;94456.09;10406534;28;96746;-85
2022/09/29 03:55:33;;;;;;;1.23;0.50;;;;;;;11.11;100.00;94444.84;10381049;28;97230;-85
2022/09/29 04:00:36;;;;;;;1.58;0.30;;;;;;;11.08;100.00;94439.19;10414945;27;97885;-85
2022/09/29 04:05:41;;;;;;;1.40;0.25;;;;;;;11.07;100.00;94445.41;10406218;28;96846;-86
2022/09/29 04:10:46;;;;;;;1.80;0.60;;;;;;;11.07;100.00;94454.06;10409757;27;96876;-85
2022/09/29 04:15:49;;;;;;;;;;;;;;;11.03;100.00;94444.19;10417200;27;99635;-86
2022/09/29 04:20:53;;;;;;;0.63;0.20;;;;;;;11.06;100.00;94452.44;10420449;28;97276;-85
2022/09/29 04:25:56;;;;;;;0.40;0.30;;;;;;;11.08;100.00;94460.91;10419604;27;97313;-85
2022/09/29 04:30:59;;;;;;;0.52;0.43;;;;;;;10.97;100.00;94470.09;10421168;27;98500;-85
2022/09/29 04:36:03;;;;;;;2.38;0.90;;;;;;;10.94;100.00;94465.25;10401824;27;99159;-85
2022/09/29 04:41:06;;;;;;;1.43;0.47;;;;;;;10.97;100.00;94474.53;10417685;28;97049;-86
2022/09/29 04:46:10;;;;;;;0.73;0.65;;;;;;;10.99;100.00;94457.63;10400304;27;97195;-86
2022/09/29 04:51:14;;;;;;;1.40;0.40;;;;;;;10.87;100.00;94456.59;10385142;27;97656;-85
2022/09/29 04:56:17;;;;;;;0.50;0.50;;;;;;;10.82;100.00;94461.56;10399356;28;97424;-85
2022/09/29 05:01:20;;;;;;;0.52;0.45;;;;;;;10.84;100.00;94480.47;10397880;27;99586;-85
2022/09/29 05:06:24;;;;;;;0.75;0.40;;;;;;;10.79;100.00;94485.47;10415225;28;96834;-85
2022/09/29 05:11:27;;;;;;;1.30;0.90;;;;;;;10.83;100.00;94499.78;10425523;27;97104;-85
2022/09/29 05:16:30;;;;;;;0.90;0.47;;;;;;;10.84;100.00;94495.34;10409081;28;97004;-85
2022/09/29 05:21:34;;;;;;;0.75;0.30;;;;;;;10.83;100.00;94493.75;10411125;28;97732;-85
2022/09/29 05:26:37;;;;;;;0.30;0.30;;;;;;;10.66;100.00;94501.06;10386245;27;96858;-85
2022/09/29 05:31:40;;;;;;;2.05;0.30;;;;;;;10.65;100.00;94505.47;10409434;27;99895;-85
2022/09/29 05:36:45;;;;;;;1.25;0.50;;;;;;;10.66;100.00;94503.69;10414685;28;96847;-86
2022/09/29 05:41:48;;;;;;;1.90;0.30;;;;;;;10.68;100.00;94509.50;10405120;27;97127;-86
2022/09/29 05:46:51;;;;;;;0.57;0.20;;;;;;;10.60;100.00;94511.28;10415495;28;97222;-85
2022/09/29 05:51:55;;;;;;;3.30;0.28;;;;;;;10.53;100.00;94513.03;10389268;28;97232;-85
2022/09/29 05:56:58;;;;;;;2.80;0.23;;;;;;;10.47;100.00;94516.38;10420198;27;96730;-85
2022/09/29 06:02:01;;;;;;;1.38;0.50;;;;;;;10.46;100.00;94527.84;10402548;27;97613;-85
2022/09/29 06:07:05;;;;;;;0.88;0.40;;;;;;;10.49;100.00;94534.47;10430221;27;98580;-85
2022/09/29 06:12:08;;;;;;;0.10;0.10;;;;;;;10.49;100.00;94532.66;10401396;27;97473;-84
2022/09/29 06:17:10;;;;;;;0.40;0.22;;;;;;;10.47;100.00;94528.66;10410810;27;100055;-85
2022/09/29 06:22:15;;;;;;;0.98;0.43;;;;;;;10.48;100.00;94531.06;10401888;28;96965;-85
2022/09/29 06:27:17;;;;;;;4.78;1.02;;;;;;;10.50;100.00;94531.69;10424900;27;97709;-85
2022/09/29 06:32:20;;;;;;;2.97;0.60;;;;;;;10.50;100.00;94536.09;10441417;27;98239;-85
2022/09/29 06:37:38;;;;;;;1.20;0.65;;;;;;;10.45;100.00;94530.66;10401198;28;96901;-84
2022/09/29 06:42:41;;;;;;;0.88;0.40;;;;;;;10.36;100.00;94535.19;10397197;27;96776;-85
2022/09/29 06:47:44;;;;;;;0.32;0.28;;;;;;;10.40;100.00;94536.41;10423107;27;98029;-85
2022/09/29 06:52:49;;;;;;;1.05;0.50;;;;;;;10.33;100.00;94538.16;10401087;27;98359;-85
2022/09/29 06:58:05;;;;;;;3.25;0.70;;;;;;;10.28;100.00;94551.78;10392047;27;96857;-86
2022/09/29 07:03:08;;;;;;;0.73;0.40;;;;;;;10.35;100.00;94559.66;10402434;27;97410;-86
2022/09/29 07:08:12;;;;;;;0.95;0.40;;;;;;;10.50;100.00;94568.22;10402865;27;96875;-86
2022/09/29 07:13:15;;;;;;;0.40;0.30;;;;;;;10.63;100.00;94577.97;10399709;27;100252;-86
2022/09/29 07:18:18;;;;;;;0.30;0.20;;;;;;;10.61;100.00;94579.97;10403708;27;98070;-86
2022/09/29 07:23:22;;;;;;;0.63;0.30;;;;;;;10.68;100.00;94595.69;10398509;27;98995;-86
2022/09/29 07:28:25;;;;;;;0.30;0.20;;;;;;;10.73;100.00;94593.31;10393975;27;97794;-86
2022/09/29 07:33:29;;;;;;;2.22;0.70;;;;;;;10.82;100.00;94592.19;10396770;27;96868;-85
2022/09/29 07:38:42;;;;;;;1.20;0.57;;;;;;;10.95;100.00;94597.50;10398182;27;97325;-85
2022/09/29 07:43:45;;;;;;;1.10;0.47;;;;;;;11.04;100.00;94597.38;10410241;27;96936;-86
2022/09/29 07:48:48;;;;;;;0.55;0.30;;;;;;;11.21;100.00;94596.06;10412292;27;97763;-85
2022/09/29 07:53:52;;;;;;;0.52;0.30;;;;;;;11.37;100.00;94597.59;10405127;28;97079;-85
2022/09/29 07:58:55;;;;;;;1.50;0.30;;;;;;;11.53;100.00;94593.84;10402608;27;96997;-85
2022/09/29 08:03:58;;;;;;;2.08;0.20;;;;;;;11.67;100.00;94590.28;10389534;28;97269;-85
2022/09/29 08:09:03;;;;;;;1.40;0.10;;;;;;;11.64;100.00;94595.94;10399558;28;97065;-85
2022/09/29 08:14:07;;;;;;;0.15;0.15;;;;;;;11.69;100.00;94616.25;10404172;28;96892;-85
2022/09/29 08:19:10;;;;;;;1.85;0.17;;;;;;;11.74;100.00;94629.56;10399595;27;99900;-85
2022/09/29 08:24:14;;;;;;;0.10;0.08;;;;;;;11.78;100.00;94627.38;10399056;28;97672;-85
2022/09/29 08:29:17;;;;;;;0.50;0.30;;;;;;;11.72;100.00;94626.34;10389567;27;96962;-86
2022/09/29 08:34:20;;;;;;;0.60;0.20;;;;;;;11.79;100.00;94619.31;10400349;27;96794;-85
2022/09/29 08:39:24;;;;;;;0.17;0.13;;;;;;;11.80;100.00;94617.50;10394661;27;97393;-85
2022/09/29 08:44:34;;;;;;;0.10;0.10;;;;;;;11.86;100.00;94619.34;10400834;27;98055;-85
2022/09/29 08:49:43;;;;;;;2.60;0.32;;;;;;;11.97;100.00;94624.03;10393340;28;99959;-85
2022/09/29 08:54:52;;;;;;;1.35;0.30;;;;;;;12.09;100.00;94630.31;10397284;28;97518;-85
2022/09/29 08:59:58;;;;;;;0.10;0.10;;;;;;;12.14;100.00;94636.78;10392324;28;99609;-86
2022/09/29 09:05:16;;;;;;;0.20;0.15;;;;;;;12.16;100.00;94646.03;10380256;28;96786;-85
2022/09/29 09:10:37;;;;;;;2.05;0.47;;;;;;;12.19;100.00;94645.63;10395370;28;97308;-86
2022/09/29 09:15:53;;;;;;;0.68;0.20;;;;;;;12.32;100.00;94647.50;10385409;28;96821;-85
2022/09/29 09:21:04;;;;;;;0.88;0.10;;;;;;;12.35;100.00;94654.94;10378502;28;96900;-85
2022/09/29 09:26:10;;;;;;;0.82;0.20;;;;;;;12.46;100.00;94653.59;10379524;28;96644;-85
2022/09/29 09:31:19;;;;;;;1.00;0.30;;;;;;;12.55;100.00;94648.97;10418876;28;96809;-85
2022/09/29 09:36:31;;;;;;;0.57;0.52;;;;;;;12.74;100.00;94650.00;10420199;27;96760;-86
2022/09/29 09:41:40;;;;;;;0.88;0.50;;;;;;;12.81;100.00;94654.22;10418490;28;97219;-87
2022/09/29 09:46:48;;;;;;;1.38;0.50;;;;;;;12.91;100.00;94653.88;10390673;28;96849;-85
2022/09/29 09:51:57;;;;;;;0.28;0.20;;;;;;;12.98;100.00;94644.19;10397782;27;96931;-85
2022/09/29 09:57:28;;;;;;;0.30;0.28;;;;;;;12.97;100.00;94652.25;10386907;27;100550;-86
2022/09/29 10:02:32;;;;;;;0.30;0.10;;;;;;;12.94;100.00;94653.44;10404621;28;96936;-86
2022/09/29 10:07:35;;;;;;;0.57;0.20;;;;;;;12.85;100.00;94652.81;10382687;28;97380;-86
2022/09/29 10:12:39;;;;;;;0.25;0.20;;;;;;;12.89;100.00;94655.88;10390800;27;97444;-86
2022/09/29 10:17:46;;;;;;;0.57;0.20;;;;;;;12.91;100.00;94653.03;10393742;27;98458;-85
2022/09/29 10:22:49;;;;;;;0.32;0.10;;;;;;;13.02;100.00;94649.84;10394703;27;97179;-85
2022/09/29 10:27:56;;;;;;;0.60;0.45;;;;;;;13.08;100.00;94654.25;10385972;28;97585;-86
2022/09/29 10:33:03;;;;;;;1.20;0.60;;;;;;;13.12;100.00;94660.72;10405089;28;100253;-86
2022/09/29 10:38:09;;;;;;;1.55;0.38;;;;;;;13.15;100.00;94660.34;10418129;27;99606;-86
2022/09/29 10:43:24;;;;;;;0.82;0.55;;;;;;;13.21;100.00;94659.50;10401654;27;99739;-86
2022/09/29 10:48:27;;;;;;;0.87;0.43;;;;;;;13.23;100.00;94654.88;10389771;28;97817;-86
2022/09/29 10:53:36;;;;;;;0.35;0.35;;;;;;;13.30;100.00;94656.69;10397344;28;97521;-86
2022/09/29 10:58:44;;;;;;;0.50;0.32;;;;;;;13.35;100.00;94664.75;10408561;27;96978;-86
2022/09/29 11:04:05;;;;;;;0.60;0.47;;;;;;;13.32;100.00;94657.28;10416195;28;97065;-86
2022/09/29 11:09:29;;;;;;;0.93;0.50;;;;;;;13.34;100.00;94663.13;10425060;27;96835;-86
2022/09/29 11:14:41;;;;;;;2.22;0.45;;;;;;;13.32;100.00;94670.41;10399178;27;96846;-86
2022/09/29 11:19:45;;;;;;;1.60;0.50;;;;;;;13.30;100.00;94672.41;10382084;28;96945;-85
2022/09/29 11:25:15;;;;;;;1.75;0.40;;;;;;;13.30;100.00;94677.66;10382386;28;96796;-85
2022/09/29 11:30:21;;;;;;;0.65;0.40;;;;;;;13.32;100.00;94671.19;10406991;28;97036;-85
2022/09/29 11:35:37;;;;;;;1.17;0.38;;;;;;;13.35;100.00;94672.63;10423736;28;97224;-85
2022/09/29 11:40:55;;;;;;;0.68;0.40;;;;;;;13.38;100.00;94674.84;10412150;27;100436;-85
2022/09/29 11:46:12;;;;;;;1.23;0.80;;;;;;;13.43;100.00;94672.41;10404907;27;96952;-86
2022/09/29 11:51:28;;;;;;;0.40;0.30;;;;;;;13.44;100.00;94669.56;10402494;28;100465;-85
2022/09/29 11:56:39;;;;;;;1.80;0.40;;;;;;;13.42;100.00;94668.97;10383882;28;98658;-85
2022/09/29 12:01:54;;;;;;;0.57;0.40;;;;;;;13.33;100.00;94666.78;10392647;28;99580;-86
2022/09/29 12:07:05;;;;;;;0.73;0.40;;;;;;;13.44;100.00;94661.69;10392972;28;97684;-86
2022/09/29 12:12:16;;;;;;;0.98;0.40;;;;;;;13.59;100.00;94664.09;10385480;27;99624;-85
2022/09/29 12:17:33;;;;;;;0.47;0.30;;;;;;;13.77;100.00;94670.53;10395872;28;99395;-85
2022/09/29 12:22:37;;;;;;;1.23;0.50;;;;;;;13.93;100.00;94670.09;10392894;28;97777;-85
2022/09/29 12:27:45;;;;;;;1.30;0.40;;;;;;;14.05;100.00;94662.34;10404013;27;97008;-86
2022/09/29 12:32:56;;;;;;;0.85;0.40;;;;;;;14.24;100.00;94655.41;10392209;28;98049;-86
2022/09/29 12:38:10;;;;;;;0.57;0.25;;;;;;;14.40;100.00;94654.13;10391081;28;97006;-86
2022/09/29 12:43:19;;;;;;;1.63;0.40;;;;;;;14.51;100.00;94655.31;10401118;27;97299;-86
2022/09/29 12:48:40;;;;;;;0.88;0.30;;;;;;;14.54;100.00;94652.25;10395368;27;97674;-86
2022/09/29 12:53:57;;;;;;;1.83;0.50;;;;;;;14.69;100.00;94644.88;10394253;28;97955;-85
2022/09/29 12:59:08;;;;;;;1.55;0.40;;;;;;;14.67;100.00;94649.53;10406651;28;97487;-86
2022/09/29 13:04:40;;;;;;;0.70;0.30;;;;;;;14.73;100.00;94650.50;10421028;28;96900;-86
2022/09/29 13:10:14;;;;;;;1.52;0.40;;;;;;;14.89;100.00;94654.47;10417567;27;100646;-86
2022/09/29 13:15:32;;;;;;;2.20;0.30;;;;;;;14.96;100.00;94649.97;10392266;27;97278;-85
2022/09/29 13:20:43;;;;;;;0.20;0.20;;;;;;;14.90;100.00;94651.59;10395920;28;96835;-86
2022/09/29 13:26:01;;;;;;;0.57;0.20;;;;;;;14.86;100.00;94647.00;10401414;28;97171;-85
2022/09/29 13:31:07;;;;;;;1.85;0.45;;;;;;;14.89;100.00;94649.22;10401041;27;97425;-85
2022/09/29 13:36:22;;;;;;;0.20;0.10;;;;;;;14.88;100.00;94644.97;10402821;27;96859;-85
2022/09/29 13:41:38;;;;;;;0.77;0.32;;;;;;;14.84;100.00;94641.16;10419827;28;96770;-86
2022/09/29 13:46:42;;;;;;;0.75;0.30;;;;;;;14.66;100.00;94642.69;10396268;28;98351;-86
2022/09/29 13:51:48;;;;;;;0.40;0.30;;;;;;;14.44;100.00;94646.66;10387226;28;97771;-86
2022/09/29 13:56:59;;;;;;;0.93;0.45;;;;;;;14.31;100.00;94648.31;10395878;28;96818;-85
2022/09/29 14:02:18;;;;;;;1.85;0.40;;;;;;;14.36;100.00;94656.38;10419559;28;96756;-86
2022/09/29 14:07:48;;;;;;;0.77;0.35;;;;;;;14.47;100.00;94659.34;10406809;28;99641;-86
2022/09/29 14:13:00;;;;;;;1.17;0.50;;;;;;;14.67;100.00;94662.69;10415321;28;97469;-87
2022/09/29 14:18:07;;;;;;;0.70;0.30;;;;;;;14.82;100.00;94661.56;10427331;27;96799;-86
2022/09/29 14:23:12;;;;;;;1.02;0.35;;;;;;;14.85;100.00;94671.66;10400993;28;96920;-86
2022/09/29 14:28:19;;;;;;;0.85;0.38;;;;;;;14.74;100.00;94666.06;10414978;27;97573;-86
2022/09/29 14:33:27;;;;;;;0.35;0.30;;;;;;;14.67;100.00;94667.94;10423844;28;97650;-85
2022/09/29 14:38:35;;;;;;;0.80;0.32;;;;;;;14.63;100.00;94674.66;10416900;28;96912;-86
2022/09/29 14:43:44;;;;;;;0.73;0.40;;;;;;;14.52;100.00;94677.94;10416703;27;96973;-85
2022/09/29 14:54:41;;;;;;;0.23;0.20;;;;;;;14.53;100.00;94674.28;10390893;28;96941;-86
2022/09/29 14:59:59;;;;;;;0.32;0.22;;;;;;;14.49;100.00;94678.38;10404211;27;97707;-87
2022/09/29 15:05:13;;;;;;;0.30;0.20;;;;;;;14.35;100.00;94675.00;10397765;28;99526;-86
2022/09/29 15:10:25;;;;;;;1.02;0.40;;;;;;;14.37;100.00;94673.75;10401275;28;97685;-86
2022/09/29 15:15:34;;;;;;;0.95;0.38;;;;;;;14.37;100.00;94678.22;10422421;27;96771;-87
2022/09/29 15:20:58;;;;;;;0.50;0.35;;;;;;;14.33;100.00;94683.09;10424726;28;96806;-86
2022/09/29 15:26:03;;;;;;;2.40;0.60;;;;;;;14.24;100.00;94684.28;10423519;28;96910;-86
2022/09/29 15:31:08;;;;;;;0.82;0.40;;;;;;;14.29;100.00;94681.84;10387095;28;96761;-86
2022/09/29 15:36:19;;;;;;;0.75;0.40;;;;;;;14.32;100.00;94688.56;10408078;28;98644;-85
2022/09/29 15:41:23;;;;;;;1.35;0.43;;;;;;;14.33;100.00;94698.03;10405898;28;97659;-85
2022/09/29 15:46:39;;;;;;;1.23;0.60;;;;;;;14.29;100.00;94686.31;10381591;28;97176;-85
2022/09/29 15:51:46;;;;;;;1.38;0.63;;;;;;;14.22;100.00;94698.66;10381692;28;96816;-85
2022/09/29 16:02:22;;;;;;;1.27;0.70;;;;;;;13.94;100.00;94705.81;10405156;28;97440;-86
2022/09/29 16:07:29;;;;;;;1.98;0.60;;;;;;;13.85;100.00;94717.56;10390084;27;97551;-88
2022/09/29 16:12:40;;;;;;;1.98;0.65;;;;;;;13.71;100.00;94729.88;10405367;27;97834;-86
2022/09/29 16:17:43;;;;;;;1.95;0.60;;;;;;;13.60;100.00;94727.88;10393390;27;97639;-86
2022/09/29 16:22:48;;;;;;;2.15;0.60;;;;;;;13.52;100.00;94718.41;10399068;27;97599;-85
2022/09/29 16:27:57;;;;;;;1.52;0.50;;;;;;;13.52;100.00;94731.53;10387431;27;97956;-86
2022/09/29 16:33:04;;;;;;;1.33;0.50;;;;;;;13.52;100.00;94736.78;10403224;27;97114;-86
2022/09/29 16:38:18;;;;;;;3.45;0.70;;;;;;;13.55;100.00;94739.00;10416597;27;100069;-84
2022/09/29 16:43:25;;;;;;;2.88;0.80;;;;;;;13.55;100.00;94751.28;10440298;27;96802;-84
2022/09/29 16:48:30;;;;;;;3.35;0.93;;;;;;;13.46;100.00;94755.94;10427774;27;96999;-83
2022/09/29 16:53:33;;;;;;;3.60;1.00;;;;;;;13.42;100.00;94767.84;10420048;28;96893;-84
2022/09/29 16:58:39;;;;;;;2.75;1.17;;;;;;;13.35;100.00;94783.56;10419909;27;97129;-84
2022/09/29 17:03:42;;;;;;;1.67;0.93;;;;;;;13.26;100.00;94787.41;10418299;27;98260;-83
2022/09/29 17:08:45;;;;;;;3.53;1.08;;;;;;;13.17;100.00;94789.41;10419357;27;97108;-84
2022/09/29 17:13:56;;;;;;;2.17;1.20;;;;;;;13.05;100.00;94796.25;10417044;27;98107;-84
2022/09/29 17:19:00;;;;;;;1.85;0.88;;;;;;;12.97;100.00;94799.03;10418030;27;97935;-84
2022/09/29 17:24:04;;;;;;;1.50;0.83;;;;;;;12.84;100.00;94805.84;10420837;27;96953;-84
2022/09/29 17:29:08;;;;;;;2.80;1.35;;;;;;;12.62;100.00;94822.69;10429367;27;97357;-83
2022/09/29 17:34:10;;;;;;;1.60;0.90;;;;;;;12.53;100.00;94826.44;10410382;27;96932;-84
2022/09/29 17:39:13;;;;;;;4.20;2.63;;;;;;;12.48;100.00;94827.06;10421368;27;96936;-83
2022/09/29 17:44:17;;;;;;;1.10;0.90;;;;;;;12.40;100.00;94825.38;10422055;28;97167;-84
2022/09/29 17:49:20;;;;;;;5.20;1.70;;;;;;;12.38;100.00;94831.84;10426801;27;96736;-84
2022/09/29 17:54:25;;;;;;;3.30;0.90;;;;;;;12.32;100.00;94833.41;10458251;27;96788;-84
2022/09/29 17:59:30;;;;;;;2.80;1.45;;;;;;;12.31;100.00;94842.25;10401042;27;96870;-83
2022/09/29 18:04:34;;;;;;;2.72;1.90;;;;;;;12.29;100.00;94833.78;10384490;28;96725;-84
2022/09/29 18:09:39;;;;;;;36.10;23.70;;;;;;;12.30;100.00;94832.78;10412836;27;96845;-84
2022/09/29 18:14:43;;;;;;;2.40;1.80;;;;;;;12.29;100.00;94849.50;10419618;27;97183;-85
2022/09/29 18:19:46;;;;;;;3.50;1.77;;;;;;;12.25;100.00;94853.53;10403700;28;96716;-85
2022/09/29 18:24:49;;;;;;;3.45;1.42;;;;;;;12.05;100.00;94850.75;10429272;27;97006;-85
2022/09/29 18:29:53;;;;;;;1.95;1.30;;;;;;;11.80;100.00;94845.97;10410472;27;98793;-85
2022/09/29 18:34:56;;;;;;;4.03;2.20;;;;;;;11.69;100.00;94852.50;10404247;27;99847;-84
2022/09/29 18:39:59;;;;;;;3.75;2.40;;;;;;;11.58;100.00;94855.63;10410554;27;97568;-84
2022/09/29 18:45:03;;;;;;;4.50;2.90;;;;;;;11.45;100.00;94852.88;10418562;27;98560;-84
2022/09/29 18:50:15;;;;;;;2.72;1.88;;;;;;;11.24;100.00;94871.94;10420265;27;96788;-84
2022/09/29 18:55:19;;;;;;;7.65;5.40;;;;;;;11.21;100.00;94867.91;10400081;27;96957;-84
2022/09/29 19:00:25;;;;;;;4.20;3.13;;;;;;;11.18;100.00;94889.19;10410691;27;96897;-85
2022/09/29 19:05:30;;;;;;;3.33;2.25;;;;;;;11.03;100.00;94896.25;10406516;27;98928;-85
2022/09/29 19:10:35;;;;;;;4.43;1.92;;;;;;;10.87;100.00;94892.84;10412717;27;100015;-87
2022/09/29 19:15:41;;;;;;;3.40;2.00;;;;;;;10.84;100.00;94898.44;10404632;27;97170;-86
2022/09/29 19:20:44;;;;;;;4.00;1.77;;;;;;;10.75;100.00;94908.19;10422328;27;96930;-86
2022/09/29 19:25:50;;;;;;;1.85;1.30;;;;;;;10.59;100.00;94911.78;10416007;27;96906;-86
2022/09/29 19:31:04;;;;;;;3.05;1.70;;;;;;;10.55;100.00;94913.16;10411374;28;97005;-87
2022/09/29 19:36:13;;;;;;;4.55;2.05;;;;;;;10.50;100.00;94918.09;10407956;27;96811;-87
2022/09/29 19:41:19;;;;;;;5.43;1.77;;;;;;;10.34;100.00;94928.69;10413468;27;99954;-86
2022/09/29 19:46:23;;;;;;;3.92;1.52;;;;;;;10.21;100.00;94934.53;10413704;27;98620;-86
2022/09/29 19:56:52;;;;;;;4.97;3.50;;;;;;;10.01;100.00;94944.69;10419251;27;96972;-86
2022/09/29 20:01:56;;;;;;;3.90;1.90;;;;;;;9.96;100.00;94947.00;10411824;27;97130;-87
2022/09/29 20:07:00;;;;;;;3.70;2.40;;;;;;;9.99;100.00;94947.47;10435414;27;97308;-84
2022/09/29 20:12:03;;;;;;;4.03;2.20;;;;;;;9.92;100.00;94953.53;10416508;27;97018;-84
2022/09/29 20:17:08;;;;;;;4.10;2.10;;;;;;;9.76;100.00;94952.66;10400446;28;96795;-84
2022/09/29 20:22:11;;;;;;;4.03;1.70;;;;;;;9.75;100.00;94955.44;10380880;28;96772;-84
2022/09/29 20:27:14;;;;;;;2.97;1.60;;;;;;;9.75;100.00;94963.28;10421717;27;96714;-83
2022/09/29 20:32:18;;;;;;;3.63;2.00;;;;;;;9.76;100.00;94952.66;10389564;28;97183;-84
2022/09/29 20:37:21;;;;;;;5.30;2.33;;;;;;;9.82;100.00;94957.19;10380239;28;96988;-84
2022/09/29 20:42:25;;;;;;;4.35;2.10;;;;;;;9.88;100.00;94965.31;10403841;27;96874;-84
2022/09/29 20:47:29;;;;;;;4.88;1.85;;;;;;;9.85;100.00;94967.28;10416517;27;97467;-84
2022/09/29 20:52:32;;;;;;;5.50;3.60;;;;;;;9.70;100.00;94974.25;10414244;27;98317;-84
2022/09/29 20:57:37;;;;;;;3.85;1.90;;;;;;;9.64;100.00;94964.50;10419848;27;96912;-84
2022/09/29 21:02:48;;;;;;;5.60;2.25;;;;;;;9.63;100.00;94974.13;10400776;28;96782;-84
2022/09/29 21:07:51;;;;;;;5.03;2.20;;;;;;;9.59;100.00;94979.84;10421090;27;97789;-84
2022/09/29 21:12:54;;;;;;;5.03;2.30;;;;;;;9.50;100.00;94991.31;10418676;28;97710;-84
2022/09/29 21:17:58;;;;;;;5.75;2.70;;;;;;;9.41;100.00;94983.50;10383794;27;97222;-84
2022/09/29 21:23:01;;;;;;;3.95;1.88;;;;;;;9.34;100.00;94994.78;10383213;28;97242;-84
2022/09/29 21:28:04;;;;;;;1.85;1.30;;;;;;;9.16;100.00;95003.66;10378273;28;96884;-84
2022/09/29 21:33:08;;;;;;;3.40;1.55;;;;;;;9.04;100.00;95002.41;10413836;27;96955;-84
2022/09/29 21:38:11;;;;;;;4.85;1.98;;;;;;;8.99;100.00;95012.53;10391320;27;97553;-84
2022/09/29 21:43:14;;;;;;;2.92;1.88;;;;;;;8.91;100.00;95015.94;10407544;28;97577;-84
2022/09/29 21:48:18;;;;;;;3.30;2.17;;;;;;;8.93;100.00;95013.97;10396918;28;98153;-84
2022/09/29 21:53:21;;;;;;;7.40;2.13;;;;;;;8.91;100.00;95036.78;10420085;27;96725;-84
2022/09/29 21:58:24;;;;;;;5.05;2.25;;;;;;;8.86;100.00;95039.06;10419262;28;96728;-84
2022/09/29 22:03:31;;;;;;;3.90;2.00;;;;;;;8.81;100.00;95042.19;10377296;28;96989;-84
2022/09/29 22:08:35;;;;;;;2.97;2.00;;;;;;;8.80;100.00;95044.97;10439375;27;96770;-84
2022/09/29 22:13:37;;;;;;;4.28;1.80;;;;;;;8.77;100.00;95051.31;10417470;28;96827;-84
2022/09/29 22:18:42;;;;;;;3.15;1.55;;;;;;;8.82;100.00;95050.81;10408964;28;96890;-84
2022/09/29 22:23:46;;;;;;;3.37;1.80;;;;;;;8.87;100.00;95056.34;10419969;27;97149;-84
2022/09/29 22:28:50;;;;;;;3.47;1.52;;;;;;;8.96;100.00;95062.34;10425064;28;96741;-85
2022/09/29 22:33:56;;;;;;;2.27;1.47;;;;;;;9.04;100.00;95063.13;10425646;28;96712;-87
2022/09/29 22:39:00;;;;;;;3.47;1.60;;;;;;;9.11;100.00;95074.50;10438795;27;97572;-87
2022/09/29 22:44:04;;;;;;;2.83;1.10;;;;;;;9.23;100.00;95074.16;10390048;28;97245;-85
2022/09/29 22:49:08;;;;;;;1.48;1.20;;;;;;;9.28;100.00;95074.44;10424608;28;96983;-85
2022/09/29 22:54:13;;;;;;;3.30;1.60;;;;;;;9.28;100.00;95071.84;10418592;27;98274;-85
2022/09/29 22:59:15;;;;;;;2.50;1.67;;;;;;;9.25;100.00;95065.19;10420456;27;96879;-85
2022/09/29 23:04:20;;;;;;;3.88;2.10;;;;;;;9.17;100.00;95062.59;10425576;27;97480;-85
2022/09/29 23:09:23;;;;;;;3.58;1.90;;;;;;;9.21;100.00;95069.13;10429839;27;97216;-86
2022/09/29 23:14:27;;;;;;;4.15;1.90;;;;;;;9.30;100.00;95072.50;10438381;27;96803;-85
2022/09/29 23:19:31;;;;;;;3.10;1.75;;;;;;;9.40;100.00;95070.50;10420097;27;97448;-85
2022/09/29 23:24:34;;;;;;;2.70;1.65;;;;;;;9.46;100.00;95075.06;10421858;27;96871;-85
2022/09/29 23:29:37;;;;;;;2.72;1.60;;;;;;;9.50;100.00;95078.16;10418787;27;97260;-85
2022/09/29 23:34:41;;;;;;;4.28;1.40;;;;;;;9.50;100.00;95072.94;10446659;27;98116;-84
2022/09/29 23:39:44;;;;;;;2.10;1.57;;;;;;;9.54;100.00;95069.03;10452132;27;96785;-85
2022/09/29 23:44:47;;;;;;;2.80;1.90;;;;;;;9.44;100.00;95064.00;10430244;27;96892;-85
2022/09/29 23:49:51;;;;;;;3.92;1.95;;;;;;;9.29;100.00;95065.66;10443587;27;96909;-85
2022/09/29 23:54:54;;;;;;;3.08;1.83;;;;;;;9.23;100.00;95061.94;10417458;28;97169;-85